createdAt,value
2016-12-26T00:00:25.259Z,1031.69
2016-12-26T00:01:25.251Z,1031.73
2016-12-26T00:02:25.242Z,1031.75
2016-12-26T00:03:25.235Z,1031.85
2016-12-26T00:04:25.227Z,1031.8
2016-12-26T00:05:25.219Z,1031.87
2016-12-26T00:06:25.211Z,1031.91
2016-12-26T00:07:25.203Z,1031.92
2016-12-26T00:08:25.196Z,1031.99
2016-12-26T00:09:25.188Z,1031.93
2016-12-26T00:10:25.180Z,1032.08
2016-12-26T00:11:25.172Z,1032.05
2016-12-26T00:12:25.165Z,1032.06
2016-12-26T00:13:25.156Z,1032.11
2016-12-26T00:14:25.148Z,1032.08
2016-12-26T00:15:25.148Z,1032.01
2016-12-26T00:16:25.133Z,1031.99
2016-12-26T00:17:25.125Z,1031.96
2016-12-26T00:18:25.117Z,1031.9
2016-12-26T00:19:25.109Z,1031.91
2016-12-26T00:20:25.103Z,1031.85
2016-12-26T00:21:25.093Z,1031.82
2016-12-26T00:22:25.086Z,1031.85
2016-12-26T00:23:25.078Z,1031.87
2016-12-26T00:24:25.070Z,1031.85
2016-12-26T00:25:25.062Z,1031.91
2016-12-26T00:26:25.054Z,1031.93
2016-12-26T00:27:25.047Z,1031.91
2016-12-26T00:28:25.038Z,1031.92
2016-12-26T00:29:25.031Z,1031.94
2016-12-26T00:30:25.024Z,1031.99
2016-12-26T00:31:25.016Z,1032.05
2016-12-26T00:32:25.008Z,1032.12
2016-12-26T00:33:25.000Z,1032.16
2016-12-26T00:34:24.993Z,1032.18
2016-12-26T00:35:24.984Z,1032.14
2016-12-26T00:36:24.977Z,1032.19
2016-12-26T00:37:24.969Z,1032.24
2016-12-26T00:38:24.965Z,1032.22
2016-12-26T00:39:24.954Z,1032.19
2016-12-26T00:40:24.945Z,1032.26
2016-12-26T00:41:24.937Z,1032.19
2016-12-26T00:42:24.929Z,1032.16
2016-12-26T00:43:24.921Z,1032.1
2016-12-26T00:44:24.914Z,1032.08
2016-12-26T00:45:24.906Z,1032.03
2016-12-26T00:46:24.897Z,1032
2016-12-26T00:47:24.890Z,1031.9
2016-12-26T00:48:24.882Z,1031.94
2016-12-26T00:49:24.875Z,1031.88
2016-12-26T00:50:24.866Z,1031.85
2016-12-26T00:51:24.859Z,1031.88
2016-12-26T00:52:24.852Z,1031.88
2016-12-26T00:53:24.843Z,1031.83
2016-12-26T00:54:24.835Z,1031.76
2016-12-26T00:55:24.827Z,1031.82
2016-12-26T00:56:24.819Z,1031.8
2016-12-26T00:57:24.811Z,1031.8
2016-12-26T00:58:24.803Z,1031.77
2016-12-26T00:59:24.796Z,1031.72
2016-12-26T01:00:24.788Z,1031.74
2016-12-26T01:01:24.780Z,1031.75
2016-12-26T01:02:24.773Z,1031.76
2016-12-26T01:03:24.764Z,1031.71
2016-12-26T01:04:24.755Z,1031.73
2016-12-26T01:05:24.748Z,1031.78
2016-12-26T01:06:24.741Z,1031.72
2016-12-26T01:07:24.733Z,1031.72
2016-12-26T01:08:24.725Z,1031.71
2016-12-26T01:09:24.717Z,1031.72
2016-12-26T01:10:24.710Z,1031.7
2016-12-26T01:11:24.702Z,1031.67
2016-12-26T01:12:24.694Z,1031.67
2016-12-26T01:13:24.686Z,1031.67
2016-12-26T01:14:24.679Z,1031.66
2016-12-26T01:15:24.670Z,1031.68
2016-12-26T01:16:24.663Z,1031.66
2016-12-26T01:17:24.655Z,1031.66
2016-12-26T01:18:24.648Z,1031.67
2016-12-26T01:19:24.639Z,1031.67
2016-12-26T01:20:24.632Z,1031.69
2016-12-26T01:21:24.624Z,1031.72
2016-12-26T01:22:24.617Z,1031.7
2016-12-26T01:23:24.610Z,1031.73
2016-12-26T01:24:24.602Z,1031.7
2016-12-26T01:25:24.593Z,1031.75
2016-12-26T01:26:24.585Z,1031.79
2016-12-26T01:27:24.578Z,1031.8
2016-12-26T01:28:24.571Z,1031.81
2016-12-26T01:29:24.563Z,1031.79
2016-12-26T01:30:24.554Z,1031.86
2016-12-26T01:31:24.547Z,1031.83
2016-12-26T01:32:24.539Z,1031.82
2016-12-26T01:33:24.532Z,1031.78
2016-12-26T01:34:24.523Z,1031.72
2016-12-26T01:35:24.516Z,1031.67
2016-12-26T01:36:24.509Z,1031.72
2016-12-26T01:37:24.500Z,1031.72
2016-12-26T01:38:24.493Z,1031.74
2016-12-26T01:39:24.485Z,1031.7
2016-12-26T01:40:24.480Z,1031.77
2016-12-26T01:41:24.469Z,1031.78
2016-12-26T01:42:24.462Z,1031.77
2016-12-26T01:43:24.462Z,1031.72
2016-12-26T01:44:24.447Z,1031.8
2016-12-26T01:45:24.439Z,1031.79
2016-12-26T01:46:24.431Z,1031.75
2016-12-26T01:47:24.424Z,1031.79
2016-12-26T01:48:24.416Z,1031.76
2016-12-26T01:49:24.409Z,1031.78
2016-12-26T01:50:24.401Z,1031.8
2016-12-26T01:51:24.393Z,1031.81
2016-12-26T01:52:24.385Z,1031.78
2016-12-26T01:53:24.377Z,1031.82
2016-12-26T01:54:24.370Z,1031.86
2016-12-26T01:55:24.362Z,1031.84
2016-12-26T01:56:24.354Z,1031.92
2016-12-26T01:57:24.347Z,1031.92
2016-12-26T01:58:24.339Z,1031.99
2016-12-26T01:59:24.330Z,1031.94
2016-12-26T02:00:24.323Z,1031.92
2016-12-26T02:01:24.315Z,1031.91
2016-12-26T02:02:24.308Z,1031.92
2016-12-26T02:03:24.300Z,1031.95
2016-12-26T02:04:24.292Z,1031.91
2016-12-26T02:05:24.285Z,1031.86
2016-12-26T02:06:24.277Z,1031.84
2016-12-26T02:07:24.269Z,1031.86
2016-12-26T02:08:24.262Z,1031.75
2016-12-26T02:09:24.255Z,1031.8
2016-12-26T02:10:24.246Z,1031.8
2016-12-26T02:11:24.239Z,1031.77
2016-12-26T02:12:24.231Z,1031.74
2016-12-26T02:13:24.224Z,1031.69
2016-12-26T02:14:24.215Z,1031.63
2016-12-26T02:15:24.208Z,1031.52
2016-12-26T02:16:24.201Z,1031.62
2016-12-26T02:17:24.192Z,1031.63
2016-12-26T02:18:24.185Z,1031.65
2016-12-26T02:19:24.177Z,1031.7
2016-12-26T02:20:24.170Z,1031.71
2016-12-26T02:21:24.161Z,1031.69
2016-12-26T02:22:24.154Z,1031.67
2016-12-26T02:23:24.147Z,1031.64
2016-12-26T02:24:24.139Z,1031.66
2016-12-26T02:25:24.131Z,1031.66
2016-12-26T02:26:24.123Z,1031.62
2016-12-26T02:27:24.116Z,1031.61
2016-12-26T02:28:24.107Z,1031.63
2016-12-26T02:29:24.100Z,1031.56
2016-12-26T02:30:24.092Z,1031.59
2016-12-26T02:31:24.091Z,1031.52
2016-12-26T02:32:24.078Z,1031.57
2016-12-26T02:33:24.068Z,1031.55
2016-12-26T02:34:24.062Z,1031.55
2016-12-26T02:35:24.054Z,1031.55
2016-12-26T02:36:24.046Z,1031.52
2016-12-26T02:37:24.038Z,1031.57
2016-12-26T02:38:24.051Z,1031.58
2016-12-26T02:39:24.022Z,1031.57
2016-12-26T02:40:24.015Z,1031.56
2016-12-26T02:41:24.008Z,1031.62
2016-12-26T02:42:24.000Z,1031.58
2016-12-26T02:43:23.992Z,1031.63
2016-12-26T02:44:23.984Z,1031.58
2016-12-26T02:45:23.977Z,1031.55
2016-12-26T02:46:23.970Z,1031.53
2016-12-26T02:47:23.962Z,1031.51
2016-12-26T02:48:23.955Z,1031.56
2016-12-26T02:49:23.947Z,1031.61
2016-12-26T02:50:23.939Z,1031.54
2016-12-26T02:51:23.932Z,1031.53
2016-12-26T02:52:23.924Z,1031.5
2016-12-26T02:53:23.917Z,1031.5
2016-12-26T02:54:23.909Z,1031.49
2016-12-26T02:55:23.901Z,1031.48
2016-12-26T02:56:23.894Z,1031.45
2016-12-26T02:57:23.887Z,1031.48
2016-12-26T02:58:23.879Z,1031.42
2016-12-26T02:59:23.871Z,1031.4
2016-12-26T03:00:23.864Z,1031.39
2016-12-26T03:01:23.856Z,1031.43
2016-12-26T03:02:23.849Z,1031.43
2016-12-26T03:03:23.842Z,1031.42
2016-12-26T03:04:23.834Z,1031.46
2016-12-26T03:05:23.826Z,1031.47
2016-12-26T03:06:23.819Z,1031.38
2016-12-26T03:07:23.812Z,1031.41
2016-12-26T03:08:23.805Z,1031.42
2016-12-26T03:09:23.797Z,1031.43
2016-12-26T03:10:23.791Z,1031.41
2016-12-26T03:11:23.783Z,1031.41
2016-12-26T03:12:23.774Z,1031.36
2016-12-26T03:13:23.767Z,1031.38
2016-12-26T03:14:23.760Z,1031.36
2016-12-26T03:15:23.753Z,1031.36
2016-12-26T03:16:23.745Z,1031.34
2016-12-26T03:17:23.738Z,1031.35
2016-12-26T03:18:23.730Z,1031.37
2016-12-26T03:19:23.723Z,1031.28
2016-12-26T03:20:23.715Z,1031.29
2016-12-26T03:21:23.708Z,1031.32
2016-12-26T03:22:23.701Z,1031.28
2016-12-26T03:23:23.692Z,1031.33
2016-12-26T03:24:23.686Z,1031.31
2016-12-26T03:25:23.678Z,1031.33
2016-12-26T03:26:23.671Z,1031.32
2016-12-26T03:27:23.663Z,1031.32
2016-12-26T03:28:23.656Z,1031.31
2016-12-26T03:29:23.649Z,1031.32
2016-12-26T03:30:23.642Z,1031.33
2016-12-26T03:31:23.633Z,1031.37
2016-12-26T03:32:23.626Z,1031.34
2016-12-26T03:33:23.619Z,1031.39
2016-12-26T03:34:23.611Z,1031.38
2016-12-26T03:35:23.604Z,1031.37
2016-12-26T03:36:23.597Z,1031.41
2016-12-26T03:37:23.589Z,1031.4
2016-12-26T03:38:23.581Z,1031.38
2016-12-26T03:39:23.574Z,1031.4
2016-12-26T03:40:23.568Z,1031.4
2016-12-26T03:41:23.560Z,1031.33
2016-12-26T03:42:23.553Z,1031.37
2016-12-26T03:43:23.546Z,1031.37
2016-12-26T03:44:23.538Z,1031.32
2016-12-26T03:45:23.530Z,1031.34
2016-12-26T03:46:23.522Z,1031.33
2016-12-26T03:47:23.517Z,1031.37
2016-12-26T03:48:23.508Z,1031.37
2016-12-26T03:49:23.500Z,1031.35
2016-12-26T03:50:23.493Z,1031.36
2016-12-26T03:51:23.485Z,1031.41
2016-12-26T03:52:23.477Z,1031.35
2016-12-26T03:53:23.470Z,1031.42
2016-12-26T03:54:23.462Z,1031.44
2016-12-26T03:55:23.455Z,1031.41
2016-12-26T03:56:23.447Z,1031.43
2016-12-26T03:57:23.440Z,1031.48
2016-12-26T03:58:23.433Z,1031.4
2016-12-26T03:59:23.426Z,1031.44
2016-12-26T04:00:23.417Z,1031.42
2016-12-26T04:01:23.410Z,1031.45
2016-12-26T04:02:23.402Z,1031.43
2016-12-26T04:03:23.394Z,1031.45
2016-12-26T04:04:23.387Z,1031.48
2016-12-26T04:05:23.380Z,1031.45
2016-12-26T04:06:23.372Z,1031.46
2016-12-26T04:07:23.364Z,1031.47
2016-12-26T04:08:23.357Z,1031.46
2016-12-26T04:09:23.349Z,1031.46
2016-12-26T04:10:23.342Z,1031.42
2016-12-26T04:11:23.334Z,1031.41
2016-12-26T04:12:23.326Z,1031.47
2016-12-26T04:13:23.319Z,1031.38
2016-12-26T04:14:23.310Z,1031.43
2016-12-26T04:15:23.303Z,1031.35
2016-12-26T04:16:23.296Z,1031.41
2016-12-26T04:17:23.288Z,1031.38
2016-12-26T04:18:23.281Z,1031.35
2016-12-26T04:19:23.273Z,1031.38
2016-12-26T04:20:23.266Z,1031.41
2016-12-26T04:21:23.258Z,1031.43
2016-12-26T04:22:23.250Z,1031.39
2016-12-26T04:23:23.243Z,1031.37
2016-12-26T04:24:23.237Z,1031.39
2016-12-26T04:25:23.228Z,1031.38
2016-12-26T04:26:23.220Z,1031.42
2016-12-26T04:27:23.212Z,1031.39
2016-12-26T04:28:23.205Z,1031.37
2016-12-26T04:29:23.197Z,1031.39
2016-12-26T04:30:23.190Z,1031.32
2016-12-26T04:31:23.182Z,1031.33
2016-12-26T04:32:23.175Z,1031.23
2016-12-26T04:33:23.166Z,1031.31
2016-12-26T04:34:23.159Z,1031.37
2016-12-26T04:35:23.152Z,1031.33
2016-12-26T04:36:23.144Z,1031.28
2016-12-26T04:37:23.137Z,1031.33
2016-12-26T04:38:23.129Z,1031.31
2016-12-26T04:39:23.122Z,1031.31
2016-12-26T04:40:23.114Z,1031.33
2016-12-26T04:41:23.106Z,1031.31
2016-12-26T04:42:23.099Z,1031.37
2016-12-26T04:43:23.092Z,1031.35
2016-12-26T04:44:23.084Z,1031.42
2016-12-26T04:45:23.077Z,1031.38
2016-12-26T04:46:23.073Z,1031.42
2016-12-26T04:47:23.062Z,1031.41
2016-12-26T04:48:23.053Z,1031.45
2016-12-26T04:49:23.046Z,1031.41
2016-12-26T04:50:23.039Z,1031.39
2016-12-26T04:51:23.031Z,1031.42
2016-12-26T04:52:23.024Z,1031.43
2016-12-26T04:53:23.016Z,1031.42
2016-12-26T04:54:23.009Z,1031.39
2016-12-26T04:55:23.000Z,1031.46
2016-12-26T04:56:22.993Z,1031.51
2016-12-26T04:57:22.986Z,1031.5
2016-12-26T04:58:22.977Z,1031.51
2016-12-26T04:59:22.970Z,1031.49
2016-12-26T05:00:22.963Z,1031.52
2016-12-26T05:01:22.956Z,1031.55
2016-12-26T05:02:22.947Z,1031.49
2016-12-26T05:03:22.940Z,1031.52
2016-12-26T05:04:22.933Z,1031.56
2016-12-26T05:05:22.925Z,1031.56
2016-12-26T05:06:22.917Z,1031.57
2016-12-26T05:07:22.910Z,1031.58
2016-12-26T05:08:22.902Z,1031.6
2016-12-26T05:09:22.894Z,1031.58
2016-12-26T05:10:22.886Z,1031.61
2016-12-26T05:11:22.883Z,1031.57
2016-12-26T05:12:22.872Z,1031.59
2016-12-26T05:13:22.863Z,1031.64
2016-12-26T05:14:22.856Z,1031.65
2016-12-26T05:15:22.849Z,1031.64
2016-12-26T05:16:22.841Z,1031.64
2016-12-26T05:17:22.833Z,1031.63
2016-12-26T05:18:22.826Z,1031.67
2016-12-26T05:19:22.819Z,1031.69
2016-12-26T05:20:22.811Z,1031.69
2016-12-26T05:21:22.803Z,1031.66
2016-12-26T05:22:22.796Z,1031.68
2016-12-26T05:23:22.788Z,1031.67
2016-12-26T05:24:22.780Z,1031.64
2016-12-26T05:25:22.772Z,1031.66
2016-12-26T05:26:22.765Z,1031.66
2016-12-26T05:27:22.757Z,1031.68
2016-12-26T05:28:22.749Z,1031.71
2016-12-26T05:29:22.742Z,1031.68
2016-12-26T05:30:22.734Z,1031.67
2016-12-26T05:31:22.726Z,1031.68
2016-12-26T05:32:22.718Z,1031.67
2016-12-26T05:33:22.711Z,1031.67
2016-12-26T05:34:22.703Z,1031.74
2016-12-26T05:35:22.695Z,1031.76
2016-12-26T05:36:22.687Z,1031.73
2016-12-26T05:37:22.680Z,1031.7
2016-12-26T05:38:22.672Z,1031.69
2016-12-26T05:39:22.664Z,1031.71
2016-12-26T05:40:22.657Z,1031.68
2016-12-26T05:41:22.650Z,1031.74
2016-12-26T05:42:22.641Z,1031.74
2016-12-26T05:43:22.633Z,1031.78
2016-12-26T05:44:22.626Z,1031.77
2016-12-26T05:45:22.618Z,1031.77
2016-12-26T05:46:22.610Z,1031.74
2016-12-26T05:47:22.603Z,1031.78
2016-12-26T05:48:22.595Z,1031.87
2016-12-26T05:49:22.587Z,1031.78
2016-12-26T05:50:22.579Z,1031.87
2016-12-26T05:51:22.572Z,1031.81
2016-12-26T05:52:22.564Z,1031.9
2016-12-26T05:53:22.555Z,1031.88
2016-12-26T05:54:22.547Z,1031.82
2016-12-26T05:55:22.540Z,1031.84
2016-12-26T05:56:22.533Z,1031.82
2016-12-26T05:57:22.524Z,1031.85
2016-12-26T05:58:22.516Z,1031.83
2016-12-26T05:59:22.509Z,1031.84
2016-12-26T06:00:22.500Z,1031.8
2016-12-26T06:01:22.493Z,1031.82
2016-12-26T06:02:22.485Z,1031.82
2016-12-26T06:03:22.477Z,1031.79
2016-12-26T06:04:22.469Z,1031.78
2016-12-26T06:05:22.461Z,1031.83
2016-12-26T06:06:22.453Z,1031.81
2016-12-26T06:07:22.446Z,1031.82
2016-12-26T06:08:22.437Z,1031.78
2016-12-26T06:09:22.430Z,1031.83
2016-12-26T06:10:22.422Z,1031.81
2016-12-26T06:11:22.414Z,1031.83
2016-12-26T06:12:22.406Z,1031.91
2016-12-26T06:13:22.398Z,1031.87
2016-12-26T06:14:22.391Z,1031.9
2016-12-26T06:15:22.382Z,1031.9
2016-12-26T06:16:22.375Z,1031.9
2016-12-26T06:17:22.367Z,1031.94
2016-12-26T06:18:22.359Z,1031.88
2016-12-26T06:19:22.351Z,1031.87
2016-12-26T06:20:22.344Z,1031.86
2016-12-26T06:21:22.336Z,1031.85
2016-12-26T06:22:22.327Z,1031.88
2016-12-26T06:23:22.319Z,1031.87
2016-12-26T06:24:22.312Z,1031.87
2016-12-26T06:25:22.304Z,1031.89
2016-12-26T06:26:22.296Z,1031.91
2016-12-26T06:27:22.288Z,1031.89
2016-12-26T06:28:22.282Z,1031.92
2016-12-26T06:29:22.273Z,1031.9
2016-12-26T06:30:22.264Z,1031.97
2016-12-26T06:31:22.257Z,1031.99
2016-12-26T06:32:22.249Z,1032.04
2016-12-26T06:33:22.240Z,1032.07
2016-12-26T06:34:22.233Z,1032.07
2016-12-26T06:35:22.225Z,1032.06
2016-12-26T06:36:22.217Z,1032.03
2016-12-26T06:37:22.209Z,1032.05
2016-12-26T06:38:22.201Z,1032.03
2016-12-26T06:39:22.193Z,1032.03
2016-12-26T06:40:22.186Z,1032.02
2016-12-26T06:41:22.177Z,1032.09
2016-12-26T06:42:22.169Z,1032.03
2016-12-26T06:43:22.161Z,1032.04
2016-12-26T06:44:22.153Z,1032.1
2016-12-26T06:45:22.145Z,1032.11
2016-12-26T06:46:22.138Z,1032.1
2016-12-26T06:47:22.130Z,1032.18
2016-12-26T06:48:22.121Z,1032.15
2016-12-26T06:49:22.113Z,1032.16
2016-12-26T06:50:22.105Z,1032.15
2016-12-26T06:51:22.099Z,1032.16
2016-12-26T06:52:22.090Z,1032.15
2016-12-26T06:53:22.082Z,1032.15
2016-12-26T06:54:22.074Z,1032.18
2016-12-26T06:55:22.065Z,1032.16
2016-12-26T06:56:22.057Z,1032.18
2016-12-26T06:57:22.049Z,1032.18
2016-12-26T06:58:22.042Z,1032.15
2016-12-26T06:59:22.033Z,1032.21
2016-12-26T07:00:22.025Z,1032.17
2016-12-26T07:01:22.017Z,1032.21
2016-12-26T07:02:22.008Z,1032.28
2016-12-26T07:03:22.000Z,1032.27
2016-12-26T07:04:21.992Z,1032.34
2016-12-26T07:05:21.985Z,1032.36
2016-12-26T07:06:21.975Z,1032.26
2016-12-26T07:07:21.968Z,1032.24
2016-12-26T07:08:21.960Z,1032.36
2016-12-26T07:09:21.952Z,1032.4
2016-12-26T07:10:21.943Z,1032.35
2016-12-26T07:11:21.935Z,1032.46
2016-12-26T07:12:21.929Z,1032.53
2016-12-26T07:13:21.918Z,1032.51
2016-12-26T07:14:21.910Z,1032.5
2016-12-26T07:15:21.902Z,1032.51
2016-12-26T07:16:21.894Z,1032.48
2016-12-26T07:17:21.885Z,1032.53
2016-12-26T07:18:21.877Z,1032.51
2016-12-26T07:19:21.869Z,1032.49
2016-12-26T07:20:21.861Z,1032.42
2016-12-26T07:21:21.852Z,1032.43
2016-12-26T07:22:21.844Z,1032.46
2016-12-26T07:23:21.836Z,1032.35
2016-12-26T07:24:21.827Z,1032.35
2016-12-26T07:25:21.826Z,1032.37
2016-12-26T07:26:21.811Z,1032.38
2016-12-26T07:27:21.803Z,1032.34
2016-12-26T07:28:21.794Z,1032.29
2016-12-26T07:29:21.786Z,1032.27
2016-12-26T07:30:21.777Z,1032.27
2016-12-26T07:31:21.770Z,1032.22
2016-12-26T07:32:21.761Z,1032.23
2016-12-26T07:33:21.752Z,1032.17
2016-12-26T07:34:21.744Z,1032.23
2016-12-26T07:35:21.735Z,1032.21
2016-12-26T07:36:21.727Z,1032.3
2016-12-26T07:37:21.719Z,1032.23
2016-12-26T07:38:21.712Z,1032.16
2016-12-26T07:39:21.702Z,1032.15
2016-12-26T07:40:21.694Z,1032.05
2016-12-26T07:41:21.686Z,1032.1
2016-12-26T07:42:21.678Z,1032.1
2016-12-26T07:43:21.670Z,1032.08
2016-12-26T07:44:21.661Z,1032.1
2016-12-26T07:45:21.653Z,1032.06
2016-12-26T07:46:21.644Z,1031.98
2016-12-26T07:47:21.636Z,1031.9
2016-12-26T07:48:21.628Z,1031.93
2016-12-26T07:49:21.620Z,1031.94
2016-12-26T07:50:21.611Z,1031.93
2016-12-26T07:51:21.603Z,1031.88
2016-12-26T07:52:21.595Z,1031.84
2016-12-26T07:53:21.587Z,1031.88
2016-12-26T07:54:21.578Z,1031.81
2016-12-26T07:55:21.571Z,1031.79
2016-12-26T07:56:21.566Z,1031.75
2016-12-26T07:57:21.554Z,1031.74
2016-12-26T07:58:21.546Z,1031.65
2016-12-26T07:59:21.538Z,1031.64
2016-12-26T08:00:21.531Z,1031.69
2016-12-26T08:01:21.522Z,1031.63
2016-12-26T08:02:21.513Z,1031.64
2016-12-26T08:03:21.506Z,1031.66
2016-12-26T08:04:21.498Z,1031.7
2016-12-26T08:05:21.489Z,1031.65
2016-12-26T08:06:21.481Z,1031.6
2016-12-26T08:07:21.474Z,1031.66
2016-12-26T08:08:21.465Z,1031.67
2016-12-26T08:09:21.457Z,1031.6
2016-12-26T08:10:21.450Z,1031.54
2016-12-26T08:11:21.442Z,1031.57
2016-12-26T08:12:21.433Z,1031.57
2016-12-26T08:13:21.426Z,1031.49
2016-12-26T08:14:21.418Z,1031.52
2016-12-26T08:15:21.411Z,1031.52
2016-12-26T08:16:21.402Z,1031.5
2016-12-26T08:17:21.394Z,1031.5
2016-12-26T08:18:21.387Z,1031.47
2016-12-26T08:19:21.378Z,1031.38
2016-12-26T08:20:21.371Z,1031.26
2016-12-26T08:21:21.363Z,1031.34
2016-12-26T08:22:21.355Z,1031.36
2016-12-26T08:23:21.347Z,1031.42
2016-12-26T08:24:21.345Z,1031.39
2016-12-26T08:25:21.332Z,1031.3
2016-12-26T08:26:21.325Z,1031.24
2016-12-26T08:27:21.317Z,1031.18
2016-12-26T08:28:21.310Z,1031.15
2016-12-26T08:29:21.303Z,1031.19
2016-12-26T08:30:21.294Z,1031.13
2016-12-26T08:31:21.287Z,1031.09
2016-12-26T08:32:21.280Z,1031.03
2016-12-26T08:33:21.272Z,1030.93
2016-12-26T08:34:21.264Z,1030.99
2016-12-26T08:35:21.257Z,1030.97
2016-12-26T08:36:21.249Z,1031.02
2016-12-26T08:37:21.241Z,1031.01
2016-12-26T08:38:21.233Z,1031.03
2016-12-26T08:39:21.227Z,1030.96
2016-12-26T08:40:21.220Z,1030.93
2016-12-26T08:41:21.211Z,1030.96
2016-12-26T08:42:21.204Z,1030.84
2016-12-26T08:43:21.197Z,1030.8
2016-12-26T08:44:21.190Z,1030.8
2016-12-26T08:45:21.182Z,1030.78
2016-12-26T08:46:21.175Z,1030.76
2016-12-26T08:47:21.168Z,1030.76
2016-12-26T08:48:21.160Z,1030.75
2016-12-26T08:49:21.153Z,1030.66
2016-12-26T08:50:21.146Z,1030.66
2016-12-26T08:51:21.138Z,1030.69
2016-12-26T08:52:21.130Z,1030.64
2016-12-26T08:53:21.123Z,1030.69
2016-12-26T08:54:21.117Z,1030.63
2016-12-26T08:55:21.110Z,1030.68
2016-12-26T08:56:21.102Z,1030.71
2016-12-26T08:57:21.095Z,1030.8
2016-12-26T08:58:21.088Z,1030.78
2016-12-26T08:59:21.080Z,1030.73
2016-12-26T09:00:21.073Z,1030.73
2016-12-26T09:01:21.066Z,1030.65
2016-12-26T09:02:21.060Z,1030.65
2016-12-26T09:03:21.052Z,1030.73
2016-12-26T09:04:21.045Z,1030.59
2016-12-26T09:05:21.038Z,1030.65
2016-12-26T09:06:21.031Z,1030.57
2016-12-26T09:07:21.023Z,1030.38
2016-12-26T09:08:21.016Z,1030.47
2016-12-26T09:09:21.010Z,1030.43
2016-12-26T09:10:21.002Z,1030.4
2016-12-26T09:11:20.995Z,1030.39
2016-12-26T09:12:20.988Z,1030.34
2016-12-26T09:13:20.982Z,1030.26
2016-12-26T09:14:20.974Z,1030.31
2016-12-26T09:15:20.968Z,1030.2
2016-12-26T09:16:20.961Z,1030.12
2016-12-26T09:17:20.954Z,1030.04
2016-12-26T09:18:20.946Z,1030.13
2016-12-26T09:19:20.940Z,1030.2
2016-12-26T09:20:20.933Z,1030.27
2016-12-26T09:21:20.926Z,1030.2
2016-12-26T09:22:20.919Z,1030.19
2016-12-26T09:23:20.912Z,1030.15
2016-12-26T09:24:20.906Z,1029.96
2016-12-26T09:25:20.898Z,1029.96
2016-12-26T09:26:20.892Z,1029.93
2016-12-26T09:27:20.888Z,1029.96
2016-12-26T09:28:20.879Z,1029.86
2016-12-26T09:29:20.872Z,1029.92
2016-12-26T09:30:20.866Z,1029.89
2016-12-26T09:31:20.860Z,1029.89
2016-12-26T09:32:20.852Z,1030.03
2016-12-26T09:33:20.846Z,1030.09
2016-12-26T09:34:20.842Z,1030.02
2016-12-26T09:35:20.833Z,1029.84
2016-12-26T09:36:20.826Z,1029.71
2016-12-26T09:37:20.820Z,1029.75
2016-12-26T09:38:20.813Z,1029.78
2016-12-26T09:39:20.807Z,1029.72
2016-12-26T09:40:20.800Z,1029.83
2016-12-26T09:41:20.794Z,1029.78
2016-12-26T09:42:20.788Z,1029.68
2016-12-26T09:43:20.781Z,1029.55
2016-12-26T09:44:20.775Z,1029.5
2016-12-26T09:45:20.769Z,1029.38
2016-12-26T09:46:20.763Z,1029.34
2016-12-26T09:47:20.756Z,1029.28
2016-12-26T09:48:20.750Z,1029.32
2016-12-26T09:49:20.744Z,1029.27
2016-12-26T09:50:20.740Z,1029.3
2016-12-26T09:51:20.731Z,1029.23
2016-12-26T09:52:20.725Z,1029.27
2016-12-26T09:53:20.722Z,1029.2
2016-12-26T09:54:20.712Z,1029.23
2016-12-26T09:55:20.706Z,1029.16
2016-12-26T09:56:20.701Z,1029.14
2016-12-26T09:57:20.695Z,1029.19
2016-12-26T09:58:20.688Z,1029.29
2016-12-26T09:59:20.682Z,1029.26
2016-12-26T10:00:20.677Z,1029.3
2016-12-26T10:01:20.671Z,1029.39
2016-12-26T10:02:20.665Z,1029.36
2016-12-26T10:03:20.660Z,1029.37
2016-12-26T10:04:20.654Z,1029.4
2016-12-26T10:05:20.647Z,1029.39
2016-12-26T10:06:20.642Z,1029.37
2016-12-26T10:07:20.636Z,1029.47
2016-12-26T10:08:20.630Z,1029.45
2016-12-26T10:09:20.623Z,1029.49
2016-12-26T10:10:20.617Z,1029.5
2016-12-26T10:11:20.611Z,1029.5
2016-12-26T10:12:20.604Z,1029.46
2016-12-26T10:13:20.599Z,1029.57
2016-12-26T10:14:20.593Z,1029.5
2016-12-26T10:15:20.587Z,1029.53
2016-12-26T10:16:20.580Z,1029.46
2016-12-26T10:17:20.574Z,1029.46
2016-12-26T10:18:20.568Z,1029.48
2016-12-26T10:19:20.563Z,1029.61
2016-12-26T10:20:20.555Z,1029.55
2016-12-26T10:21:20.549Z,1029.44
2016-12-26T10:22:20.544Z,1029.44
2016-12-26T10:23:20.536Z,1029.51
2016-12-26T10:24:20.531Z,1029.47
2016-12-26T10:25:20.524Z,1029.49
2016-12-26T10:26:20.519Z,1029.37
2016-12-26T10:27:20.511Z,1029.48
2016-12-26T10:28:20.506Z,1029.48
2016-12-26T10:29:20.500Z,1029.44
2016-12-26T10:30:20.493Z,1029.48
2016-12-26T10:31:20.487Z,1029.49
2016-12-26T10:32:20.480Z,1029.49
2016-12-26T10:33:20.474Z,1029.51
2016-12-26T10:34:20.467Z,1029.43
2016-12-26T10:35:20.461Z,1029.41
2016-12-26T10:36:20.455Z,1029.48
2016-12-26T10:37:20.448Z,1029.39
2016-12-26T10:38:20.441Z,1029.36
2016-12-26T10:39:20.435Z,1029.36
2016-12-26T10:40:20.429Z,1029.36
2016-12-26T10:41:20.423Z,1029.15
2016-12-26T10:42:20.416Z,1029.17
2016-12-26T10:43:20.410Z,1029.07
2016-12-26T10:44:20.427Z,1029.08
2016-12-26T10:45:20.396Z,1029.02
2016-12-26T10:46:20.390Z,1028.96
2016-12-26T10:47:20.384Z,1028.87
2016-12-26T10:48:20.378Z,1028.88
2016-12-26T10:49:20.370Z,1028.83
2016-12-26T10:50:20.364Z,1028.84
2016-12-26T10:51:20.358Z,1028.8
2016-12-26T10:52:20.352Z,1028.82
2016-12-26T10:53:20.345Z,1028.8
2016-12-26T10:54:20.339Z,1028.78
2016-12-26T10:55:20.333Z,1028.79
2016-12-26T10:56:20.326Z,1028.73
2016-12-26T10:57:20.320Z,1028.72
2016-12-26T10:58:20.313Z,1028.77
2016-12-26T10:59:20.308Z,1028.79
2016-12-26T11:00:20.300Z,1028.77
2016-12-26T11:01:20.294Z,1028.73
2016-12-26T11:02:20.288Z,1028.71
2016-12-26T11:03:20.282Z,1028.62
2016-12-26T11:04:20.275Z,1028.67
2016-12-26T11:05:20.269Z,1028.65
2016-12-26T11:06:20.263Z,1028.62
2016-12-26T11:07:20.256Z,1028.7
2016-12-26T11:08:20.250Z,1028.6
2016-12-26T11:09:20.244Z,1028.72
2016-12-26T11:10:20.238Z,1028.66
2016-12-26T11:11:20.232Z,1028.7
2016-12-26T11:12:20.225Z,1028.7
2016-12-26T11:13:20.219Z,1028.66
2016-12-26T11:14:20.214Z,1028.58
2016-12-26T11:15:20.207Z,1028.65
2016-12-26T11:16:20.199Z,1028.63
2016-12-26T11:17:20.193Z,1028.61
2016-12-26T11:18:20.186Z,1028.64
2016-12-26T11:19:20.180Z,1028.63
2016-12-26T11:20:20.174Z,1028.55
2016-12-26T11:21:20.168Z,1028.52
2016-12-26T11:22:20.161Z,1028.48
2016-12-26T11:23:20.157Z,1028.54
2016-12-26T11:24:20.149Z,1028.59
2016-12-26T11:25:20.146Z,1028.53
2016-12-26T11:26:20.136Z,1028.54
2016-12-26T11:27:20.130Z,1028.44
2016-12-26T11:28:20.124Z,1028.41
2016-12-26T11:29:20.117Z,1028.44
2016-12-26T11:30:20.111Z,1028.35
2016-12-26T11:31:20.105Z,1028.32
2016-12-26T11:32:20.099Z,1028.34
2016-12-26T11:33:20.092Z,1028.19
2016-12-26T11:34:20.086Z,1028.24
2016-12-26T11:35:20.080Z,1028.2
2016-12-26T11:36:20.076Z,1028.2
2016-12-26T11:37:20.068Z,1028.03
2016-12-26T11:38:20.062Z,1027.98
2016-12-26T11:39:20.056Z,1027.95
2016-12-26T11:40:20.049Z,1027.98
2016-12-26T11:41:20.043Z,1027.95
2016-12-26T11:42:20.037Z,1027.89
2016-12-26T11:43:20.031Z,1027.89
2016-12-26T11:44:20.025Z,1027.95
2016-12-26T11:45:20.019Z,1027.93
2016-12-26T11:46:20.013Z,1027.92
2016-12-26T11:47:20.006Z,1027.94
2016-12-26T11:48:20.000Z,1027.83
2016-12-26T11:49:19.994Z,1027.77
2016-12-26T11:50:19.990Z,1027.76
2016-12-26T11:51:19.982Z,1027.79
2016-12-26T11:52:19.976Z,1027.76
2016-12-26T11:53:19.970Z,1027.83
2016-12-26T11:54:19.965Z,1027.81
2016-12-26T11:55:19.958Z,1027.88
2016-12-26T11:56:19.952Z,1027.9
2016-12-26T11:57:19.949Z,1028
2016-12-26T11:58:19.940Z,1028
2016-12-26T11:59:19.934Z,1027.99
2016-12-26T12:00:19.928Z,1028.04
2016-12-26T12:01:19.923Z,1028.1
2016-12-26T12:02:19.916Z,1028.06
2016-12-26T12:03:19.910Z,1028.15
2016-12-26T12:04:19.906Z,1028.19
2016-12-26T12:05:19.899Z,1028.16
2016-12-26T12:06:19.892Z,1028.21
2016-12-26T12:07:19.886Z,1028.29
2016-12-26T12:08:19.881Z,1028.4